createdAt,value
2019-03-12T00:03:34.694Z,5.43
2019-03-12T00:05:45.495Z,5.43
2019-03-12T00:07:56.428Z,5.46
2019-03-12T00:10:48.882Z,5.42
2019-03-12T00:12:59.714Z,5.44
2019-03-12T00:15:10.625Z,5.43
2019-03-12T00:17:21.438Z,5.46
2019-03-12T00:19:32.243Z,5.51
2019-03-12T00:21:43.069Z,5.47
2019-03-12T00:23:53.903Z,5.44
2019-03-12T00:26:04.688Z,5.38
2019-03-12T00:28:15.501Z,5.43
2019-03-12T00:30:26.336Z,5.48
2019-03-12T00:32:37.174Z,5.47
2019-03-12T00:34:47.952Z,5.40
2019-03-12T00:36:58.881Z,5.40
2019-03-12T00:39:09.685Z,5.43
2019-03-12T00:41:20.467Z,5.45
2019-03-12T00:43:31.277Z,5.44
2019-03-12T00:45:42.101Z,5.38
2019-03-12T00:47:52.894Z,5.36
2019-03-12T00:50:45.341Z,5.33
2019-03-12T00:52:56.227Z,5.25
2019-03-12T00:55:48.659Z,5.18
2019-03-12T00:57:59.472Z,5.15
2019-03-12T01:00:51.932Z,5.08
2019-03-12T01:03:44.400Z,5.06
2019-03-12T01:05:55.191Z,4.96
2019-03-12T01:08:05.986Z,4.84
2019-03-12T01:10:16.949Z,4.83
2019-03-12T01:12:27.748Z,4.76
2019-03-12T01:14:38.544Z,4.78
2019-03-12T01:16:49.356Z,4.70
2019-03-12T01:19:00.171Z,4.73
2019-03-12T01:21:10.965Z,4.70
2019-03-12T01:23:21.820Z,4.71
2019-03-12T01:25:32.636Z,4.63
2019-03-12T01:27:43.433Z,4.60
2019-03-12T01:29:54.252Z,4.61
2019-03-12T01:32:05.073Z,4.58
2019-03-12T01:34:15.868Z,4.56
2019-03-12T01:36:26.715Z,4.54
2019-03-12T01:38:37.498Z,4.51
2019-03-12T01:40:48.291Z,4.50
2019-03-12T01:42:59.121Z,4.48
2019-03-12T01:45:29.810Z,4.46
2019-03-12T01:47:40.693Z,4.47
2019-03-12T01:49:51.515Z,4.45
2019-03-12T01:52:02.418Z,4.45
2019-03-12T01:54:13.198Z,4.45
2019-03-12T01:56:24.047Z,4.45
2019-03-12T01:58:34.839Z,4.45
2019-03-12T02:00:45.748Z,4.44
2019-03-12T02:02:56.548Z,4.46
2019-03-12T02:05:07.344Z,4.35
2019-03-12T02:07:18.162Z,4.35
2019-03-12T02:12:01.557Z,4.40
2019-03-12T02:14:32.294Z,4.29
2019-03-12T02:16:43.134Z,4.30
2019-03-12T02:18:53.921Z,4.28
2019-03-12T02:21:04.754Z,4.30
2019-03-12T02:23:15.556Z,4.29
2019-03-12T02:25:26.506Z,4.38
2019-03-12T02:27:37.324Z,4.35
2019-03-12T02:29:48.122Z,4.35
2019-03-12T02:31:58.967Z,4.39
2019-03-12T02:34:09.773Z,4.42
2019-03-12T02:36:40.438Z,4.44
2019-03-12T02:38:51.253Z,4.48
2019-03-12T02:41:02.136Z,4.53
2019-03-12T02:43:12.962Z,4.53
2019-03-12T02:45:23.766Z,4.51
2019-03-12T02:47:34.567Z,4.50
2019-03-12T02:49:45.399Z,4.53
2019-03-12T02:51:56.198Z,4.54
2019-03-12T02:54:07.028Z,4.55
2019-03-12T02:56:17.923Z,4.54
2019-03-12T02:58:28.792Z,4.46
2019-03-12T03:00:39.732Z,4.48
2019-03-12T03:02:50.605Z,4.49
2019-03-12T03:05:01.413Z,4.50
2019-03-12T03:07:32.079Z,4.50
2019-03-12T03:09:42.920Z,4.53
2019-03-12T03:11:53.722Z,4.49
2019-03-12T03:14:04.529Z,4.49
2019-03-12T03:16:15.321Z,4.46
2019-03-12T03:18:26.148Z,4.46
2019-03-12T03:20:36.985Z,4.44
2019-03-12T03:22:47.758Z,4.45
2019-03-12T03:24:58.569Z,4.47
2019-03-12T03:27:09.373Z,4.50
2019-03-12T03:29:20.181Z,4.48
2019-03-12T03:31:31.022Z,4.39
2019-03-12T03:33:41.811Z,4.34
2019-03-12T03:35:52.590Z,4.31
2019-03-12T03:38:03.396Z,4.27
2019-03-12T03:40:34.084Z,4.27
2019-03-12T03:42:45.007Z,4.28
2019-03-12T03:44:55.804Z,4.23
2019-03-12T03:47:06.611Z,4.18
2019-03-12T03:49:17.442Z,4.17
2019-03-12T03:51:28.222Z,4.20
2019-03-12T03:53:39.010Z,4.18
2019-03-12T03:55:49.845Z,4.14
2019-03-12T03:58:00.638Z,4.11
2019-03-12T04:00:31.340Z,4.10
2019-03-12T04:02:42.142Z,4.06
2019-03-12T04:04:52.971Z,4.03
2019-03-12T04:07:03.759Z,3.99
2019-03-12T04:09:14.558Z,3.97
2019-03-12T04:11:25.397Z,3.90
2019-03-12T04:13:36.206Z,3.80
2019-03-12T04:18:05.857Z,3.63
2019-03-12T04:20:58.310Z,3.52
2019-03-12T04:23:09.116Z,3.44
2019-03-12T04:25:19.919Z,3.45
2019-03-12T04:27:30.751Z,3.48
2019-03-12T04:29:41.582Z,3.50
2019-03-12T04:31:52.363Z,3.50
2019-03-12T04:34:23.027Z,3.51
2019-03-12T04:36:33.901Z,3.53
2019-03-12T04:38:44.731Z,3.52
2019-03-12T04:40:55.535Z,3.43
2019-03-12T04:43:06.353Z,3.41
2019-03-12T04:45:17.248Z,3.32
2019-03-12T04:47:28.072Z,3.35
2019-03-12T04:49:38.865Z,3.39
2019-03-12T04:51:49.676Z,3.41
2019-03-12T04:54:00.464Z,3.50
2019-03-12T04:56:11.269Z,3.52
2019-03-12T04:58:22.075Z,3.52
2019-03-12T05:00:32.858Z,3.52
2019-03-12T05:02:43.681Z,3.50
2019-03-12T05:04:54.586Z,3.56
2019-03-12T05:07:05.410Z,3.56
2019-03-12T05:09:16.196Z,3.56
2019-03-12T05:11:27.072Z,3.54
2019-03-12T05:13:37.901Z,3.53
2019-03-12T05:15:48.689Z,3.53
2019-03-12T05:17:59.516Z,3.58
2019-03-12T05:20:51.980Z,3.56
2019-03-12T05:23:02.811Z,3.54
2019-03-12T05:25:55.231Z,3.46
2019-03-12T05:28:06.039Z,3.41
2019-03-12T05:30:58.477Z,3.46
2019-03-12T05:33:09.315Z,3.43
2019-03-12T05:35:20.112Z,3.37
2019-03-12T05:37:31.004Z,3.38
2019-03-12T05:39:41.811Z,3.38
2019-03-12T05:41:52.700Z,3.33
2019-03-12T05:46:42.695Z,3.30
2019-03-12T05:48:53.493Z,3.29
2019-03-12T05:51:04.297Z,3.22
2019-03-12T05:53:15.322Z,3.16
2019-03-12T05:55:26.117Z,3.11
2019-03-12T05:57:36.906Z,3.08
2019-03-12T05:59:47.723Z,3.06
2019-03-12T06:01:58.527Z,3.09
2019-03-12T06:04:09.351Z,3.12
2019-03-12T06:06:20.158Z,3.09
2019-03-12T06:08:31.051Z,3.09
2019-03-12T06:10:41.909Z,3.03
2019-03-12T06:12:52.698Z,3.05
2019-03-12T06:15:45.170Z,3.01
2019-03-12T06:17:55.958Z,3.00
2019-03-12T06:20:48.424Z,3.06
2019-03-12T06:22:59.286Z,3.04
2019-03-12T06:25:10.233Z,3.02
2019-03-12T06:27:21.032Z,3.02
2019-03-12T06:29:31.824Z,3.12
2019-03-12T06:32:02.511Z,3.18
2019-03-12T06:39:46.274Z,3.28
2019-03-12T06:44:35.533Z,3.30
2019-03-12T06:47:06.189Z,3.38
2019-03-12T06:54:31.174Z,3.55
2019-03-12T06:59:24.202Z,3.70
2019-03-12T07:04:17.365Z,3.94
2019-03-12T07:06:48.066Z,4.09
2019-03-12T07:09:18.726Z,4.12
2019-03-12T07:11:49.443Z,4.30
2019-03-12T07:14:22.503Z,4.56
2019-03-12T07:16:52.806Z,5.11
2019-03-12T07:19:23.494Z,5.85
2019-03-12T07:21:54.201Z,6.60
2019-03-12T07:36:12.704Z,9.25
2019-03-12T07:41:02.228Z,9.80
2019-03-12T07:43:32.939Z,10.14
2019-03-12T07:46:03.613Z,10.34
2019-03-12T07:48:34.304Z,10.58
2019-03-12T07:51:04.981Z,10.84
2019-03-12T07:53:35.652Z,11.13
2019-03-12T07:58:38.679Z,11.03
2019-03-12T08:01:09.344Z,11.07
2019-03-12T08:08:30.758Z,11.20
2019-03-12T08:11:01.479Z,11.43
2019-03-12T08:13:32.163Z,11.56
2019-03-12T08:16:02.906Z,11.61
2019-03-12T08:18:35.572Z,11.71
2019-03-12T08:21:06.162Z,12.02
2019-03-12T08:23:36.927Z,11.99
2019-03-12T08:26:07.617Z,11.57
2019-03-12T08:28:38.286Z,10.92
2019-03-12T08:31:08.979Z,10.44
2019-03-12T08:33:49.984Z,10.51
2019-03-12T08:36:12.236Z,10.83
2019-03-12T08:41:15.274Z,11.47
2019-03-12T08:43:45.945Z,11.74
2019-03-12T08:50:57.978Z,11.55
2019-03-12T08:53:28.641Z,11.55
2019-03-12T08:55:59.326Z,11.66
2019-03-12T09:01:02.386Z,11.82
2019-03-12T09:03:33.052Z,11.92
2019-03-12T09:06:03.767Z,11.79
2019-03-12T09:11:06.805Z,12.21
2019-03-12T09:13:37.479Z,12.23
2019-03-12T09:16:08.168Z,12.27
2019-03-12T09:18:38.955Z,12.17
2019-03-12T09:21:09.652Z,12.34
2019-03-12T09:23:40.435Z,12.27
2019-03-12T09:26:11.131Z,12.07
2019-03-12T09:28:41.823Z,12.13
2019-03-12T09:31:12.499Z,12.28
2019-03-12T09:36:02.017Z,12.39
2019-03-12T09:40:51.715Z,12.31
2019-03-12T09:43:22.524Z,12.33
2019-03-12T09:45:53.307Z,11.96
2019-03-12T09:55:45.623Z,11.72
2019-03-12T09:58:16.327Z,11.93
2019-03-12T10:00:47.106Z,11.98
2019-03-12T10:03:17.797Z,11.91
2019-03-12T10:05:48.469Z,11.93
2019-03-12T10:08:19.161Z,11.82
2019-03-12T10:13:22.235Z,12.03
2019-03-12T10:15:52.914Z,11.92
2019-03-12T10:18:23.616Z,12.03
2019-03-12T10:20:54.286Z,11.85
2019-03-12T10:25:57.303Z,12.07
2019-03-12T10:28:27.999Z,12.15
2019-03-12T10:30:58.687Z,12.30
2019-03-12T10:33:29.419Z,12.30
2019-03-12T10:36:00.167Z,12.36
2019-03-12T10:38:52.673Z,12.46
2019-03-12T10:43:35.929Z,12.58
2019-03-12T10:46:06.621Z,12.56
2019-03-12T10:48:17.428Z,12.41
2019-03-12T10:50:35.532Z,12.16
2019-03-12T10:52:46.344Z,11.96
2019-03-12T10:54:57.180Z,11.98
2019-03-12T10:57:08.000Z,12.10
2019-03-12T10:59:18.802Z,12.19
2019-03-12T11:01:29.632Z,12.38
2019-03-12T11:03:40.459Z,12.57
2019-03-12T11:05:51.271Z,12.69
2019-03-12T11:08:02.062Z,12.70
2019-03-12T11:10:32.756Z,12.56
2019-03-12T11:12:43.583Z,12.60
2019-03-12T11:14:54.387Z,12.45
2019-03-12T11:17:05.296Z,12.33
2019-03-12T11:19:16.091Z,12.40
2019-03-12T11:21:26.919Z,12.51
2019-03-12T11:23:37.747Z,12.67
2019-03-12T11:25:48.576Z,12.82
2019-03-12T11:27:59.417Z,12.71
2019-03-12T11:30:30.107Z,12.64
2019-03-12T11:32:40.896Z,12.64
2019-03-12T11:34:51.693Z,12.63
2019-03-12T11:37:02.881Z,12.58
2019-03-12T11:39:15.352Z,12.42
2019-03-12T11:41:26.254Z,12.40
2019-03-12T11:43:37.036Z,12.56
2019-03-12T11:45:47.829Z,12.60
2019-03-12T11:47:58.648Z,12.34
2019-03-12T11:50:51.105Z,12.34
2019-03-12T11:53:02.152Z,12.35
2019-03-12T11:55:56.270Z,12.35
2019-03-12T11:58:07.119Z,12.26
2019-03-12T12:00:59.611Z,12.31
2019-03-12T12:03:10.583Z,12.22
2019-03-12T12:05:21.485Z,12.07
2019-03-12T12:07:32.417Z,11.97
2019-03-12T12:09:43.206Z,11.84
2019-03-12T12:11:54.030Z,11.75
2019-03-12T12:14:04.853Z,11.84
2019-03-12T12:16:15.755Z,11.90
2019-03-12T12:18:26.686Z,11.96
2019-03-12T12:20:37.478Z,12.06
2019-03-12T12:22:48.294Z,12.14
2019-03-12T12:24:59.121Z,12.12
2019-03-12T12:27:09.926Z,11.90
2019-03-12T12:29:20.769Z,11.82
2019-03-12T12:31:31.667Z,11.79
2019-03-12T12:33:42.497Z,11.83
2019-03-12T12:35:53.342Z,11.84
2019-03-12T12:38:04.377Z,11.82
2019-03-12T12:40:56.862Z,11.90
2019-03-12T12:43:07.665Z,11.93
2019-03-12T12:45:38.764Z,11.91
2019-03-12T12:47:49.556Z,11.90
2019-03-12T12:50:00.527Z,12.02
2019-03-12T12:52:11.323Z,12.07
2019-03-12T12:54:22.314Z,12.02
2019-03-12T12:56:33.116Z,11.99
2019-03-12T12:58:43.958Z,11.93
2019-03-12T13:00:54.799Z,11.96
2019-03-12T13:03:05.679Z,11.97
2019-03-12T13:05:16.504Z,11.91
2019-03-12T13:07:27.313Z,11.90
2019-03-12T13:09:38.145Z,11.77
2019-03-12T13:11:49.065Z,11.78
2019-03-12T13:13:59.868Z,11.72
2019-03-12T13:16:10.698Z,11.71
2019-03-12T13:18:21.605Z,11.69
2019-03-12T13:20:32.442Z,11.69
2019-03-12T13:22:43.336Z,11.84
2019-03-12T13:24:54.136Z,12.12
2019-03-12T13:27:04.949Z,12.22
2019-03-12T13:29:15.817Z,12.18
2019-03-12T13:31:26.637Z,12.21
2019-03-12T13:33:37.546Z,12.12
2019-03-12T13:35:49.577Z,12.16
2019-03-12T13:38:01.041Z,12.15
2019-03-12T13:40:53.594Z,12.09
2019-03-12T13:43:04.525Z,12.06
2019-03-12T13:45:57.063Z,11.99
2019-03-12T13:48:07.930Z,11.98
2019-03-12T13:50:18.774Z,11.88
2019-03-12T13:52:29.624Z,11.81
2019-03-12T13:54:40.626Z,11.68
2019-03-12T13:56:51.513Z,11.68
2019-03-12T13:59:02.536Z,11.69
2019-03-12T14:01:13.469Z,11.71
2019-03-12T14:03:24.259Z,11.69
2019-03-12T14:05:35.080Z,11.63
2019-03-12T14:07:45.975Z,11.53
2019-03-12T14:09:56.786Z,11.55
2019-03-12T14:12:07.727Z,11.63
2019-03-12T14:14:18.736Z,11.68
2019-03-12T14:16:29.534Z,11.77
2019-03-12T14:18:40.473Z,11.85
2019-03-12T14:21:32.959Z,11.93
2019-03-12T14:24:03.663Z,12.01
2019-03-12T14:26:14.459Z,12.04
2019-03-12T14:28:25.494Z,11.98
2019-03-12T14:30:36.411Z,11.96
2019-03-12T14:32:47.212Z,11.89
2019-03-12T14:34:58.232Z,11.74
2019-03-12T14:37:09.157Z,11.81
2019-03-12T14:39:20.054Z,11.75
2019-03-12T14:41:31.087Z,11.71
2019-03-12T14:43:41.904Z,11.62
2019-03-12T14:45:52.911Z,11.58
2019-03-12T14:48:03.815Z,11.62
2019-03-12T14:50:56.301Z,11.70
2019-03-12T14:53:48.759Z,11.72
2019-03-12T14:55:59.594Z,11.75
2019-03-12T14:58:10.674Z,11.82
2019-03-12T15:01:03.120Z,11.82
2019-03-12T15:03:14.050Z,11.84
2019-03-12T15:05:24.953Z,11.90
2019-03-12T15:07:35.795Z,11.96
2019-03-12T15:09:46.598Z,11.93
2019-03-12T15:11:57.410Z,11.94
2019-03-12T15:14:08.255Z,11.87
2019-03-12T15:16:19.048Z,11.91
2019-03-12T15:18:29.889Z,11.93
2019-03-12T15:20:40.792Z,11.92
2019-03-12T15:22:51.560Z,11.88
2019-03-12T15:25:44.006Z,11.91
2019-03-12T15:27:54.801Z,11.87
2019-03-12T15:30:26.080Z,11.59
2019-03-12T15:32:36.885Z,11.54
2019-03-12T15:34:47.707Z,11.42
2019-03-12T15:36:58.518Z,11.34
2019-03-12T15:39:09.653Z,11.35
2019-03-12T15:41:20.495Z,11.32
2019-03-12T15:43:31.297Z,11.31
2019-03-12T15:45:42.215Z,11.17
2019-03-12T15:47:53.018Z,11.11
2019-03-12T15:50:45.466Z,11.14
2019-03-12T15:52:56.302Z,11.18
2019-03-12T15:55:07.505Z,11.21
2019-03-12T15:57:18.350Z,11.26
2019-03-12T15:59:29.231Z,11.25
2019-03-12T16:01:40.040Z,11.30
2019-03-12T16:03:50.946Z,11.24
2019-03-12T16:06:01.836Z,11.22
2019-03-12T16:08:12.741Z,11.16
2019-03-12T16:10:23.614Z,11.14
2019-03-12T16:12:34.470Z,11.16
2019-03-12T16:14:45.276Z,11.12
2019-03-12T16:16:56.105Z,11.11
2019-03-12T16:19:06.912Z,11.00
2019-03-12T16:21:17.767Z,11.01
2019-03-12T16:23:28.567Z,10.94
2019-03-12T16:25:39.370Z,10.96
2019-03-12T16:27:50.195Z,10.92
2019-03-12T16:30:01.117Z,10.85
2019-03-12T16:32:11.928Z,10.87
2019-03-12T16:34:22.784Z,10.88
2019-03-12T16:36:33.694Z,10.83
2019-03-12T16:38:44.519Z,10.84
2019-03-12T16:40:55.322Z,10.79
2019-03-12T16:43:06.280Z,10.78
2019-03-12T16:45:58.740Z,10.77
2019-03-12T16:48:09.658Z,10.73
2019-03-12T16:50:20.503Z,10.63
2019-03-12T16:52:31.417Z,10.53
2019-03-12T16:54:42.227Z,10.48
2019-03-12T16:56:53.048Z,10.48
2019-03-12T16:59:03.875Z,10.47
2019-03-12T17:01:14.709Z,10.45
2019-03-12T17:03:25.603Z,10.41
2019-03-12T17:05:36.427Z,10.31
2019-03-12T17:07:47.265Z,10.27
2019-03-12T17:09:58.086Z,10.25
2019-03-12T17:12:08.944Z,10.23
2019-03-12T17:14:19.864Z,10.19
2019-03-12T17:16:30.672Z,10.19
2019-03-12T17:18:41.594Z,10.24
2019-03-12T17:20:52.409Z,10.16
2019-03-12T17:23:03.334Z,10.15
2019-03-12T17:25:14.164Z,10.62
2019-03-12T17:27:24.995Z,11.44
2019-03-12T17:29:35.833Z,11.89
2019-03-12T17:31:46.632Z,12.08
2019-03-12T17:33:57.451Z,12.14
2019-03-12T17:36:08.413Z,11.74
2019-03-12T17:38:19.334Z,11.36
2019-03-12T17:40:30.154Z,11.12
2019-03-12T17:42:40.959Z,10.84
2019-03-12T17:45:11.692Z,10.56
2019-03-12T17:47:22.513Z,10.48
2019-03-12T17:49:33.364Z,10.35
2019-03-12T17:51:44.212Z,10.20
2019-03-12T17:53:54.993Z,10.16
2019-03-12T17:56:05.949Z,10.11
2019-03-12T17:58:16.787Z,10.04
2019-03-12T18:00:47.483Z,10.01
2019-03-12T18:02:58.290Z,9.94
2019-03-12T18:05:50.791Z,9.91
2019-03-12T18:08:01.612Z,9.88
2019-03-12T18:10:32.350Z,9.77
2019-03-12T18:12:43.205Z,9.67
2019-03-12T18:14:54.008Z,9.68
2019-03-12T18:17:04.836Z,9.69
2019-03-12T18:19:15.679Z,9.62
2019-03-12T18:21:26.484Z,9.65
2019-03-12T18:23:37.319Z,9.66
2019-03-12T18:26:29.768Z,9.61
2019-03-12T18:28:40.615Z,9.58
2019-03-12T18:30:51.436Z,9.55
2019-03-12T18:33:02.390Z,9.52
2019-03-12T18:35:13.309Z,9.54
2019-03-12T18:37:24.127Z,9.51
2019-03-12T18:39:34.962Z,9.46
2019-03-12T18:41:45.768Z,9.48
2019-03-12T18:43:56.621Z,9.45
2019-03-12T18:46:07.650Z,9.43
2019-03-12T18:48:18.494Z,9.47
2019-03-12T18:50:29.336Z,9.49
2019-03-12T18:52:40.292Z,9.42
2019-03-12T18:54:51.127Z,9.48
2019-03-12T18:57:01.939Z,9.51
2019-03-12T18:59:12.784Z,9.45
2019-03-12T19:01:23.650Z,9.47
2019-03-12T19:03:34.489Z,9.51
2019-03-12T19:05:45.323Z,9.47
2019-03-12T19:07:56.255Z,9.50
2019-03-12T19:10:26.969Z,9.48
2019-03-12T19:12:37.922Z,9.47
2019-03-12T19:14:48.767Z,9.56
2019-03-12T19:16:59.574Z,9.56
2019-03-12T19:19:10.543Z,9.48
2019-03-12T19:21:21.357Z,9.47
2019-03-12T19:23:32.186Z,9.48
2019-03-12T19:26:24.752Z,9.43
2019-03-12T19:28:35.754Z,9.47
2019-03-12T19:30:46.841Z,9.46
2019-03-12T19:33:17.528Z,9.50
2019-03-12T19:36:10.088Z,9.55
2019-03-12T19:38:20.904Z,9.56
2019-03-12T19:41:13.425Z,9.54
2019-03-12T19:43:24.246Z,9.55
2019-03-12T19:45:35.153Z,9.57
2019-03-12T19:47:46.073Z,9.59
2019-03-12T19:49:57.109Z,9.60
2019-03-12T19:52:08.021Z,9.66
2019-03-12T19:54:18.839Z,9.69
2019-03-12T19:56:29.698Z,9.73
2019-03-12T19:58:40.512Z,9.75
2019-03-12T20:03:14.786Z,9.74
2019-03-12T20:05:23.094Z,9.79
2019-03-12T20:07:34.037Z,9.77
2019-03-12T20:10:26.485Z,9.83
2019-03-12T20:13:18.979Z,9.84
2019-03-12T20:16:09.771Z,9.88
2019-03-12T20:19:02.266Z,9.91
2019-03-12T20:21:54.766Z,9.89
2019-03-12T20:24:47.232Z,9.87
2019-03-12T20:27:37.823Z,9.88
2019-03-12T20:30:30.308Z,9.87
2019-03-12T20:33:20.829Z,9.87
2019-03-12T20:36:11.373Z,9.83
2019-03-12T20:39:02.290Z,9.86
2019-03-12T20:41:54.864Z,9.83
2019-03-12T20:44:45.402Z,9.89
2019-03-12T20:47:35.991Z,9.91
2019-03-12T20:50:26.526Z,9.92
2019-03-12T20:53:19.038Z,9.96
2019-03-12T20:56:09.675Z,9.89
2019-03-12T20:59:00.355Z,9.91
2019-03-12T21:01:52.805Z,9.95
2019-03-12T21:04:43.376Z,9.95
2019-03-12T21:07:35.826Z,9.94
2019-03-12T21:10:28.291Z,9.96
2019-03-12T21:13:18.874Z,10.00
2019-03-12T21:16:11.326Z,9.98
2019-03-12T21:19:01.895Z,10.03
2019-03-12T21:22:03.185Z,10.03
2019-03-12T21:24:46.805Z,10.04
2019-03-12T21:27:39.274Z,10.02
2019-03-12T21:32:50.625Z,9.96
2019-03-12T21:35:01.759Z,9.95
2019-03-12T21:37:54.232Z,9.92
2019-03-12T21:40:46.705Z,9.93
2019-03-12T21:42:57.536Z,9.89
2019-03-12T21:45:50.009Z,9.83
2019-03-12T21:48:00.940Z,9.78
2019-03-12T21:50:11.773Z,9.73
2019-03-12T21:52:22.691Z,9.70
2019-03-12T21:54:33.650Z,9.69
2019-03-12T21:56:44.464Z,9.70
2019-03-12T21:58:55.404Z,9.75
2019-03-12T22:01:06.292Z,9.72
2019-03-12T22:03:17.095Z,9.72
2019-03-12T22:05:27.943Z,9.68
2019-03-12T22:07:38.733Z,9.65
2019-03-12T22:09:49.596Z,9.66
2019-03-12T22:12:00.409Z,9.64
2019-03-12T22:14:11.248Z,9.61
2019-03-12T22:16:22.101Z,9.56
2019-03-12T22:18:32.948Z,9.56
2019-03-12T22:20:43.773Z,9.50
2019-03-12T22:23:14.476Z,9.44
2019-03-12T22:25:25.267Z,9.37
2019-03-12T22:27:36.099Z,9.32
2019-03-12T22:29:46.890Z,9.31
2019-03-12T22:31:57.726Z,9.32
2019-03-12T22:34:08.514Z,9.38
2019-03-12T22:36:19.335Z,9.41
2019-03-12T22:38:30.172Z,9.46
2019-03-12T22:40:40.995Z,9.52
2019-03-12T22:42:51.808Z,9.57
2019-03-12T22:45:44.258Z,9.62
2019-03-12T22:47:55.068Z,9.63
2019-03-12T22:50:47.599Z,9.71
2019-03-12T22:52:58.477Z,9.82
2019-03-12T22:55:50.909Z,9.86
2019-03-12T22:58:01.735Z,9.89
2019-03-12T23:00:54.171Z,9.93
2019-03-12T23:03:05.108Z,9.98
2019-03-12T23:05:15.912Z,10.01
2019-03-12T23:09:49.235Z,10.12
2019-03-12T23:12:02.539Z,10.16
2019-03-12T23:14:13.400Z,10.18
2019-03-12T23:16:24.215Z,10.24
2019-03-12T23:18:35.082Z,10.31
2019-03-12T23:20:46.044Z,10.34
2019-03-12T23:22:56.888Z,10.35
2019-03-12T23:25:07.720Z,10.43
2019-03-12T23:27:18.536Z,10.50
2019-03-12T23:29:29.351Z,10.58
2019-03-12T23:31:40.153Z,10.64
2019-03-12T23:33:50.965Z,10.71
2019-03-12T23:36:01.871Z,10.77
2019-03-12T23:38:12.681Z,10.84
2019-03-12T23:40:23.496Z,10.93
2019-03-12T23:42:34.298Z,10.98
2019-03-12T23:44:45.112Z,11.09
2019-03-12T23:46:55.915Z,11.12
2019-03-12T23:49:06.744Z,11.15
2019-03-12T23:51:17.566Z,11.12
2019-03-12T23:53:28.353Z,11.16
2019-03-12T23:55:39.178Z,11.18
2019-03-12T23:57:50.107Z,11.20
